Time;durP1;ratioP1;P1;durP2;ratioP2;P2;SDS_P1;SDS_P2;PMS_P1;PMS_P2;Temp;Humidity;BMP_temperature;BMP_pressure;BME280_temperature;BME280_humidity;BME280_pressure;Samples;Min_cycle;Max_cycle;Signal;HPM_P1;HPM_P2
2023/09/27 00:00:09;;;;;;;25.70;15.50;;;18.00;99.90;;;;;;5035346;28;20559;-59
2023/09/27 00:02:36;;;;;;;20.97;14.37;;;18.40;99.90;;;;;;5035457;28;20484;-60
2023/09/27 00:05:06;;;;;;;16.60;13.50;;;18.20;99.90;;;;;;5035587;28;20507;-60
2023/09/27 00:07:34;;;;;;;19.37;15.83;;;;;;;;;;5035446;28;20893;-58
2023/09/27 00:10:01;;;;;;;21.97;15.00;;;18.00;99.90;;;;;;5035425;28;20518;-60
2023/09/27 00:12:28;;;;;;;17.47;13.90;;;18.10;99.90;;;;;;5035290;28;20941;-59
2023/09/27 00:14:58;;;;;;;24.37;14.33;;;18.10;99.90;;;;;;5035472;28;20793;-60
2023/09/27 00:17:25;;;;;;;25.43;16.50;;;18.10;99.90;;;;;;5035195;28;20462;-58
2023/09/27 00:19:52;;;;;;;19.13;14.67;;;18.10;99.90;;;;;;5035073;28;20507;-59
2023/09/27 00:22:19;;;;;;;22.47;15.07;;;18.00;99.90;;;;;;5035194;28;20539;-60
2023/09/27 00:24:46;;;;;;;21.10;16.70;;;;;;;;;;5035315;28;20491;-59
2023/09/27 00:27:13;;;;;;;25.57;16.37;;;;;;;;;;5035539;28;20551;-59
2023/09/27 00:29:40;;;;;;;23.10;16.00;;;18.10;99.90;;;;;;5035252;28;20468;-59
2023/09/27 00:32:09;;;;;;;20.70;14.77;;;18.00;99.90;;;;;;5037333;28;20460;-60
2023/09/27 00:34:36;;;;;;;19.80;14.47;;;;;;;;;;5037491;28;20464;-59
2023/09/27 00:37:03;;;;;;;22.30;15.80;;;17.70;99.90;;;;;;5035876;28;20472;-60
2023/09/27 00:39:30;;;;;;;24.57;15.07;;;17.80;99.90;;;;;;5036577;28;20474;-60
2023/09/27 00:41:57;;;;;;;17.13;14.20;;;;;;;;;;5034750;28;20471;-59
2023/09/27 00:44:24;;;;;;;22.00;13.53;;;17.70;99.90;;;;;;5034899;28;20560;-59
2023/09/27 00:46:52;;;;;;;20.47;13.80;;;17.60;99.90;;;;;;5035165;28;20869;-59
2023/09/27 00:49:21;;;;;;;31.17;15.70;;;17.70;99.90;;;;;;5035691;28;20455;-59
2023/09/27 00:51:48;;;;;;;23.50;15.20;;;17.90;99.90;;;;;;5043275;28;20497;-60
2023/09/27 00:54:15;;;;;;;21.83;14.20;;;18.00;99.90;;;;;;5040038;28;20483;-58
2023/09/27 00:56:43;;;;;;;25.50;16.87;;;;;;;;;;5037169;28;20447;-59
2023/09/27 00:59:10;;;;;;;21.90;15.30;;;17.70;99.90;;;;;;5041472;28;20843;-60
2023/09/27 01:01:38;;;;;;;24.80;17.50;;;17.60;99.90;;;;;;5039336;28;21005;-60
2023/09/27 01:04:05;;;;;;;22.67;14.73;;;18.00;99.90;;;;;;5039872;28;20515;-59
2023/09/27 01:06:34;;;;;;;23.10;15.80;;;17.30;99.90;;;;;;5039751;28;20507;-58
2023/09/27 01:09:03;;;;;;;20.50;14.97;;;17.60;99.90;;;;;;5038866;28;20454;-58
2023/09/27 01:11:30;;;;;;;21.20;13.47;;;;;;;;;;5038547;28;20471;-60
2023/09/27 01:13:57;;;;;;;24.57;16.10;;;17.60;99.90;;;;;;5039428;28;20440;-59
2023/09/27 01:16:24;;;;;;;21.97;15.23;;;17.60;99.90;;;;;;5038690;28;20568;-59
2023/09/27 01:18:52;;;;;;;24.33;16.27;;;17.60;99.90;;;;;;5038982;28;20939;-59
2023/09/27 01:21:20;;;;;;;23.83;15.80;;;17.60;99.90;;;;;;5039238;28;20846;-59
2023/09/27 01:23:50;;;;;;;22.07;15.30;;;17.50;99.90;;;;;;5039846;28;20490;-60
2023/09/27 01:26:18;;;;;;;22.23;16.30;;;17.60;99.90;;;;;;5037954;28;20464;-59
2023/09/27 01:28:46;;;;;;;23.27;15.57;;;17.50;99.90;;;;;;5034440;28;20544;-58
2023/09/27 01:31:13;;;;;;;23.57;15.27;;;17.40;99.90;;;;;;5034098;28;20468;-58
2023/09/27 01:33:40;;;;;;;23.50;15.00;;;18.00;99.90;;;;;;5040019;28;20866;-59
2023/09/27 01:36:07;;;;;;;27.90;17.03;;;17.50;99.90;;;;;;5045058;28;20544;-58
2023/09/27 01:38:34;;;;;;;23.50;15.87;;;17.50;99.90;;;;;;5045334;28;20478;-59
2023/09/27 01:41:02;;;;;;;21.23;14.10;;;17.60;99.90;;;;;;5046486;28;20535;-60
2023/09/27 01:43:29;;;;;;;25.40;16.10;;;17.50;99.90;;;;;;5045449;28;20440;-57
2023/09/27 01:45:56;;;;;;;25.07;15.40;;;17.10;99.90;;;;;;5044581;28;20459;-59
2023/09/27 01:48:23;;;;;;;24.43;16.77;;;17.50;99.90;;;;;;5045045;28;20513;-59
2023/09/27 01:50:50;;;;;;;25.07;15.93;;;17.50;99.90;;;;;;5044162;28;20475;-59
2023/09/27 01:53:17;;;;;;;25.77;17.50;;;17.30;99.90;;;;;;5045506;28;20467;-59
2023/09/27 01:55:44;;;;;;;23.20;17.03;;;17.50;99.90;;;;;;5045002;28;20487;-60
2023/09/27 01:58:12;;;;;;;26.87;16.63;;;17.30;99.90;;;;;;5045327;28;20512;-58
2023/09/27 02:00:39;;;;;;;25.83;15.50;;;17.50;99.90;;;;;;5045054;28;20495;-58
2023/09/27 02:03:06;;;;;;;23.60;15.73;;;17.30;99.90;;;;;;5045079;28;20472;-59
2023/09/27 02:05:33;;;;;;;22.83;15.27;;;;;;;;;;5044501;28;20484;-60
2023/09/27 02:08:00;;;;;;;26.57;17.20;;;17.30;99.90;;;;;;5044530;28;20425;-59
2023/09/27 02:10:27;;;;;;;23.17;15.70;;;17.30;99.90;;;;;;5044954;28;20480;-59
2023/09/27 02:12:54;;;;;;;26.13;15.80;;;17.40;99.90;;;;;;5044702;28;20425;-59
2023/09/27 02:15:22;;;;;;;29.70;15.10;;;17.40;99.90;;;;;;5044790;28;20445;-60
2023/09/27 02:17:52;;;;;;;20.33;15.73;;;;;;;;;;5044847;28;20535;-60
2023/09/27 02:20:20;;;;;;;26.27;16.63;;;;;;;;;;5046658;28;20454;-60
2023/09/27 02:22:47;;;;;;;23.67;15.17;;;17.40;99.90;;;;;;5048973;28;20490;-59
2023/09/27 02:25:15;;;;;;;21.33;15.37;;;17.40;99.90;;;;;;5048814;28;20541;-59
2023/09/27 02:27:42;;;;;;;33.47;16.43;;;17.20;99.90;;;;;;5049151;28;20460;-58
2023/09/27 02:30:12;;;;;;;21.83;15.77;;;17.20;99.90;;;;;;5048395;28;20439;-59
2023/09/27 02:32:41;;;;;;;22.23;15.27;;;17.40;99.90;;;;;;5049041;28;20463;-59
2023/09/27 02:35:09;;;;;;;22.30;14.83;;;17.20;99.90;;;;;;5049150;28;20448;-59
2023/09/27 02:37:37;;;;;;;24.67;17.97;;;17.20;99.90;;;;;;5048085;28;20444;-59
2023/09/27 02:40:11;;;;;;;22.37;15.30;;;17.60;99.90;;;;;;5049039;28;20909;-60
2023/09/27 02:42:39;;;;;;;25.60;15.77;;;17.40;99.90;;;;;;5049417;28;20462;-57
2023/09/27 02:45:08;;;;;;;21.30;14.93;;;17.60;99.90;;;;;;5049182;28;20480;-59
2023/09/27 02:47:35;;;;;;;22.37;16.43;;;17.30;99.90;;;;;;5049475;28;20478;-60
2023/09/27 02:50:05;;;;;;;19.63;13.57;;;17.40;99.90;;;;;;5049276;28;20444;-59
2023/09/27 02:52:32;;;;;;;20.70;14.90;;;17.00;99.90;;;;;;5049717;28;20468;-59
2023/09/27 02:54:59;;;;;;;24.43;15.37;;;17.10;99.90;;;;;;5049141;28;20451;-60
2023/09/27 02:57:26;;;;;;;23.17;16.20;;;17.20;99.90;;;;;;5048333;28;20494;-60
2023/09/27 02:59:53;;;;;;;22.97;15.40;;;16.90;99.90;;;;;;5048569;28;20468;-60
2023/09/27 03:02:21;;;;;;;24.73;15.20;;;;;;;;;;5048097;28;20506;-59
2023/09/27 03:04:48;;;;;;;21.57;16.13;;;17.30;99.90;;;;;;5048426;28;20817;-59
2023/09/27 03:07:19;;;;;;;21.33;15.47;;;17.00;99.90;;;;;;5048698;28;20475;-57
2023/09/27 03:09:47;;;;;;;24.37;14.87;;;;;;;;;;5048190;28;20486;-59
2023/09/27 03:12:14;;;;;;;22.37;16.97;;;16.80;99.90;;;;;;5048271;28;20542;-59
2023/09/27 03:14:41;;;;;;;21.67;15.40;;;16.90;99.90;;;;;;5048895;28;20455;-59
2023/09/27 03:17:09;;;;;;;26.83;16.10;;;;;;;;;;5048291;28;20467;-60
2023/09/27 03:19:36;;;;;;;21.87;14.47;;;16.90;99.90;;;;;;5047982;28;20471;-58
2023/09/27 03:22:02;;;;;;;22.47;15.00;;;17.10;99.90;;;;;;5049286;28;20468;-59
2023/09/27 03:24:34;;;;;;;21.97;14.83;;;16.80;99.90;;;;;;5048353;28;20491;-59
2023/09/27 03:27:02;;;;;;;28.13;16.80;;;16.80;99.90;;;;;;5048556;28;20502;-60
2023/09/27 03:29:30;;;;;;;25.30;16.57;;;16.80;99.90;;;;;;5048302;28;20988;-59
2023/09/27 03:31:57;;;;;;;29.23;18.10;;;17.00;99.90;;;;;;5048418;28;20476;-59
2023/09/27 03:34:26;;;;;;;25.13;16.10;;;17.00;99.90;;;;;;5047362;28;20452;-59
2023/09/27 03:36:56;;;;;;;27.87;17.07;;;17.00;99.90;;;;;;5048706;28;20940;-60
2023/09/27 03:39:23;;;;;;;29.03;17.30;;;17.00;99.90;;;;;;5047893;28;20421;-59
2023/09/27 03:41:51;;;;;;;26.70;17.70;;;17.00;99.90;;;;;;5047352;28;20479;-58
2023/09/27 03:44:18;;;;;;;24.43;17.90;;;17.00;99.90;;;;;;5047394;28;20500;-58
2023/09/27 03:46:46;;;;;;;22.93;16.07;;;;;;;;;;5047958;28;20464;-59
2023/09/27 03:49:13;;;;;;;21.67;15.30;;;17.00;99.90;;;;;;5047907;28;20451;-58
2023/09/27 03:51:40;;;;;;;26.20;15.03;;;16.90;99.90;;;;;;5047534;28;20476;-60
2023/09/27 03:54:10;;;;;;;24.90;16.00;;;17.00;99.90;;;;;;5047574;28;20452;-59
2023/09/27 03:56:37;;;;;;;23.70;15.47;;;17.20;99.90;;;;;;5047377;28;20470;-58
2023/09/27 03:59:05;;;;;;;21.50;15.27;;;16.80;99.90;;;;;;5047741;28;20479;-61
2023/09/27 04:01:32;;;;;;;25.17;14.90;;;17.10;99.90;;;;;;5047567;28;20853;-59
2023/09/27 04:04:00;;;;;;;27.03;15.80;;;;;;;;;;5047420;28;20467;-60
2023/09/27 04:06:27;;;;;;;25.13;16.37;;;16.90;99.90;;;;;;5047589;28;20470;-59
2023/09/27 04:08:54;;;;;;;26.33;16.83;;;16.80;99.90;;;;;;5047195;28;20478;-59
2023/09/27 04:11:20;;;;;;;21.97;16.73;;;17.00;99.90;;;;;;5047656;28;20455;-60
2023/09/27 04:13:48;;;;;;;22.00;14.70;;;;;;;;;;5047147;28;20528;-59
2023/09/27 04:16:17;;;;;;;23.93;15.70;;;16.80;99.90;;;;;;5046978;28;20452;-59
2023/09/27 04:18:44;;;;;;;23.07;15.70;;;17.00;99.90;;;;;;5047007;28;20526;-58
2023/09/27 04:21:12;;;;;;;18.30;15.07;;;16.60;99.90;;;;;;5047430;28;20453;-57
2023/09/27 04:23:39;;;;;;;20.33;14.43;;;17.00;99.90;;;;;;5047268;28;20471;-59
2023/09/27 04:26:06;;;;;;;23.30;16.47;;;16.70;99.90;;;;;;5047792;28;20514;-58
2023/09/27 04:28:37;;;;;;;25.93;15.90;;;16.90;99.90;;;;;;5048481;28;20468;-58
2023/09/27 04:31:04;;;;;;;24.00;14.47;;;16.80;99.90;;;;;;5048663;28;20416;-60
2023/09/27 04:33:32;;;;;;;20.30;13.47;;;16.80;99.90;;;;;;5049410;28;20503;-59
2023/09/27 04:36:00;;;;;;;24.13;16.67;;;16.90;99.90;;;;;;5048029;28;20498;-57
2023/09/27 04:38:27;;;;;;;21.67;13.70;;;16.70;99.90;;;;;;5047441;28;20500;-59
2023/09/27 04:40:54;;;;;;;23.10;14.50;;;;;;;;;;5048028;28;20445;-59
2023/09/27 04:43:21;;;;;;;21.60;15.10;;;16.70;99.90;;;;;;5047002;28;20531;-58
2023/09/27 04:45:49;;;;;;;22.47;14.93;;;16.50;99.90;;;;;;5047868;28;20483;-59
2023/09/27 04:48:16;;;;;;;19.77;14.13;;;16.40;99.90;;;;;;5048097;28;20478;-60
2023/09/27 04:50:44;;;;;;;20.47;15.20;;;16.70;99.90;;;;;;5047980;28;20444;-58
2023/09/27 04:53:11;;;;;;;24.10;14.10;;;16.30;99.90;;;;;;5048975;28;20591;-58
2023/09/27 04:55:38;;;;;;;17.47;12.97;;;;;;;;;;5049203;28;20456;-59
2023/09/27 04:58:06;;;;;;;19.93;14.30;;;16.40;99.90;;;;;;5048863;28;20471;-59
2023/09/27 05:00:33;;;;;;;19.20;14.50;;;16.10;99.90;;;;;;5048140;28;20511;-59
2023/09/27 05:02:59;;;;;;;16.70;13.73;;;16.80;99.90;;;;;;5048541;28;20502;-59
2023/09/27 05:05:26;;;;;;;21.17;13.17;;;16.20;99.90;;;;;;5047966;28;20488;-58
2023/09/27 05:07:54;;;;;;;19.93;13.30;;;16.20;99.90;;;;;;5048829;28;20797;-59
2023/09/27 05:10:21;;;;;;;19.73;12.30;;;16.20;99.90;;;;;;5048805;28;20420;-60
2023/09/27 05:12:49;;;;;;;20.00;14.43;;;;;;;;;;5048338;28;20455;-60
2023/09/27 05:15:16;;;;;;;16.03;12.17;;;16.50;99.90;;;;;;5048848;28;20431;-59
2023/09/27 05:17:43;;;;;;;19.40;13.10;;;16.10;99.90;;;;;;5048349;28;20467;-58
2023/09/27 05:20:11;;;;;;;14.93;11.63;;;16.30;99.90;;;;;;5048904;28;20472;-59
2023/09/27 05:22:37;;;;;;;16.87;12.60;;;16.30;99.90;;;;;;5048888;28;20459;-59
2023/09/27 05:25:09;;;;;;;20.00;13.50;;;16.30;99.90;;;;;;5048289;28;20507;-60
2023/09/27 05:27:35;;;;;;;23.77;14.47;;;16.40;99.90;;;;;;5048635;28;20429;-58
2023/09/27 05:30:07;;;;;;;21.83;15.50;;;16.30;99.90;;;;;;5048347;28;20518;-59
2023/09/27 05:32:34;;;;;;;19.43;11.50;;;16.20;99.90;;;;;;5048566;28;20429;-59
2023/09/27 05:35:01;;;;;;;22.00;14.90;;;16.30;99.90;;;;;;5047984;28;20440;-59
2023/09/27 05:37:28;;;;;;;20.20;14.47;;;16.30;99.90;;;;;;5049026;28;20471;-59
2023/09/27 05:39:55;;;;;;;20.17;12.40;;;16.30;99.90;;;;;;5049464;28;20447;-59
2023/09/27 05:42:23;;;;;;;17.17;14.07;;;16.40;99.90;;;;;;5049952;28;20444;-60
2023/09/27 05:44:51;;;;;;;22.10;14.80;;;16.30;99.90;;;;;;5048866;28;20488;-59
2023/09/27 05:47:18;;;;;;;16.63;12.77;;;16.30;99.90;;;;;;5047835;28;20464;-59
2023/09/27 05:49:45;;;;;;;19.10;14.47;;;16.30;99.90;;;;;;5048313;28;20472;-59
2023/09/27 05:52:12;;;;;;;19.57;13.80;;;16.40;99.90;;;;;;5048089;28;20453;-59
2023/09/27 05:54:39;;;;;;;17.87;13.70;;;;;;;;;;5049566;28;20502;-59
2023/09/27 05:57:07;;;;;;;21.10;14.33;;;16.80;99.90;;;;;;5052134;28;20454;-60
2023/09/27 05:59:35;;;;;;;19.40;13.83;;;16.30;99.90;;;;;;5051502;28;20780;-60
2023/09/27 06:02:03;;;;;;;20.63;14.20;;;;;;;;;;5050962;28;20458;-59
2023/09/27 06:04:33;;;;;;;18.30;12.73;;;16.40;99.90;;;;;;5051257;28;20476;-60
2023/09/27 06:07:00;;;;;;;18.97;14.30;;;16.30;99.90;;;;;;5051975;28;20448;-60
2023/09/27 06:09:27;;;;;;;25.57;16.67;;;16.40;99.90;;;;;;5051568;28;20475;-60
2023/09/27 06:11:54;;;;;;;20.43;16.10;;;;;;;;;;5052036;28;20448;-60
2023/09/27 06:14:21;;;;;;;18.67;13.60;;;16.60;99.90;;;;;;5051512;28;20496;-60
2023/09/27 06:16:50;;;;;;;25.63;15.30;;;16.20;99.90;;;;;;5052047;28;20447;-59
2023/09/27 06:19:17;;;;;;;17.47;13.03;;;;;;;;;;5051389;28;20551;-59
2023/09/27 06:21:44;;;;;;;22.07;15.03;;;16.50;99.90;;;;;;5051094;28;20456;-61
2023/09/27 06:24:12;;;;;;;20.33;15.13;;;16.40;99.90;;;;;;5045896;28;20530;-60
2023/09/27 06:26:41;;;;;;;18.70;15.90;;;16.50;99.90;;;;;;5046901;28;20566;-58
2023/09/27 06:29:09;;;;;;;21.10;15.20;;;16.60;99.90;;;;;;5040027;28;20478;-59
2023/09/27 06:31:35;;;;;;;30.60;17.00;;;16.90;99.90;;;;;;5040356;28;20436;-60
2023/09/27 06:34:04;;;;;;;20.60;14.43;;;16.90;99.90;;;;;;5039615;28;20550;-59
2023/09/27 06:36:34;;;;;;;20.50;14.93;;;;;;;;;;5040349;28;20436;-60
2023/09/27 06:39:01;;;;;;;24.50;15.50;;;;;;;;;;5040631;28;20448;-59
2023/09/27 06:41:29;;;;;;;25.00;15.63;;;17.60;99.90;;;;;;5040400;28;20453;-60
2023/09/27 06:43:56;;;;;;;23.30;16.30;;;17.00;99.90;;;;;;5040096;28;20538;-59
2023/09/27 06:46:23;;;;;;;18.50;13.73;;;;;;;;;;5039581;28;20464;-59
2023/09/27 06:48:50;;;;;;;20.53;14.63;;;;;;;;;;5040281;28;20513;-59
2023/09/27 06:51:18;;;;;;;22.60;14.30;;;17.20;99.90;;;;;;5040163;28;20634;-59
2023/09/27 06:53:45;;;;;;;16.70;14.73;;;17.10;99.90;;;;;;5039536;28;20460;-59
2023/09/27 06:56:12;;;;;;;16.97;13.67;;;17.30;99.90;;;;;;5039445;28;20440;-60
2023/09/27 06:58:40;;;;;;;20.47;14.07;;;17.40;99.90;;;;;;5039920;28;20450;-60
2023/09/27 07:01:06;;;;;;;23.77;14.40;;;17.60;99.90;;;;;;5039736;28;20467;-60
2023/09/27 07:03:36;;;;;;;20.27;14.17;;;17.60;99.90;;;;;;5039839;28;20534;-59
2023/09/27 07:06:03;;;;;;;21.30;15.77;;;18.00;99.90;;;;;;5038814;28;20538;-57
2023/09/27 07:08:32;;;;;;;18.57;13.53;;;18.00;99.90;;;;;;5039264;28;20804;-59
2023/09/27 07:11:05;;;;;;;21.30;14.77;;;18.10;99.90;;;;;;5039040;28;20464;-60
2023/09/27 07:13:32;;;;;;;22.47;15.20;;;18.10;99.90;;;;;;5039297;28;20558;-60
2023/09/27 07:15:59;;;;;;;21.17;14.70;;;18.60;99.90;;;;;;5041396;28;20547;-59
2023/09/27 07:18:26;;;;;;;23.87;16.47;;;18.30;99.90;;;;;;5047718;28;20470;-60
2023/09/27 07:20:54;;;;;;;22.17;14.60;;;18.50;99.90;;;;;;5046913;28;20476;-59
2023/09/27 07:23:21;;;;;;;19.93;13.50;;;;;;;;;;5047525;28;20452;-59
2023/09/27 07:25:52;;;;;;;21.67;13.77;;;18.20;99.90;;;;;;5047203;28;20507;-58
2023/09/27 07:28:19;;;;;;;22.17;16.30;;;18.50;99.90;;;;;;5047424;28;20798;-59
2023/09/27 07:30:47;;;;;;;19.47;13.47;;;18.50;99.90;;;;;;5047474;28;20498;-59
2023/09/27 07:33:17;;;;;;;22.77;13.00;;;18.60;99.90;;;;;;5046404;28;20843;-60
2023/09/27 07:35:45;;;;;;;27.23;14.30;;;18.70;99.90;;;;;;5035848;28;20460;-59
2023/09/27 07:38:12;;;;;;;17.20;12.70;;;;;;;;;;5036271;28;20799;-61
2023/09/27 07:40:39;;;;;;;24.83;16.20;;;19.00;99.90;;;;;;5035840;28;20499;-59
2023/09/27 07:43:07;;;;;;;23.20;15.30;;;19.10;99.90;;;;;;5035862;28;20905;-59
2023/09/27 07:45:36;;;;;;;18.77;14.40;;;19.40;99.90;;;;;;5035981;28;20484;-59
2023/09/27 07:48:05;;;;;;;21.97;16.60;;;19.20;99.90;;;;;;5035689;28;20753;-58
2023/09/27 07:50:32;;;;;;;23.60;15.37;;;19.40;99.90;;;;;;5035889;28;20476;-60
2023/09/27 07:52:59;;;;;;;25.33;14.80;;;19.30;99.90;;;;;;5035890;28;20506;-57
2023/09/27 07:55:26;;;;;;;20.13;16.10;;;19.40;99.90;;;;;;5035505;28;20933;-59
2023/09/27 07:57:54;;;;;;;21.40;13.67;;;;;;;;;;5035791;28;20456;-59
2023/09/27 08:00:28;;;;;;;20.30;14.97;;;19.70;99.90;;;;;;5035357;28;20504;-59
2023/09/27 08:02:55;;;;;;;18.57;14.93;;;19.70;99.90;;;;;;5035682;28;20460;-60
2023/09/27 08:05:22;;;;;;;19.23;13.60;;;19.80;99.90;;;;;;5035510;28;20559;-60
2023/09/27 08:07:50;;;;;;;24.40;14.60;;;20.00;99.90;;;;;;5035404;28;20428;-60
2023/09/27 08:10:18;;;;;;;23.80;14.47;;;20.10;99.90;;;;;;5035483;28;20499;-60
2023/09/27 08:12:47;;;;;;;18.50;14.53;;;20.30;99.90;;;;;;5035652;28;20441;-59
2023/09/27 08:15:14;;;;;;;21.50;15.13;;;;;;;;;;5035191;28;20484;-60
2023/09/27 08:17:42;;;;;;;20.97;14.57;;;20.30;99.90;;;;;;5034195;28;20452;-60
2023/09/27 08:20:12;;;;;;;21.13;14.60;;;20.70;99.90;;;;;;5036075;28;20474;-60
2023/09/27 08:22:40;;;;;;;18.90;14.17;;;20.70;99.90;;;;;;5037186;28;20885;-59
2023/09/27 08:25:09;;;;;;;15.23;13.33;;;21.50;99.90;;;;;;5036384;28;20792;-60
2023/09/27 08:27:36;;;;;;;19.37;11.60;;;23.00;99.90;;;;;;5036157;28;20487;-61
2023/09/27 08:30:05;;;;;;;18.03;14.90;;;24.70;99.90;;;;;;5035858;28;20452;-59
2023/09/27 08:32:36;;;;;;;21.60;14.50;;;26.60;99.90;;;;;;5035314;28;20913;-60
2023/09/27 08:35:05;;;;;;;15.83;12.23;;;30.00;99.90;;;;;;5035534;28;20428;-60
2023/09/27 08:37:32;;;;;;;14.67;12.10;;;;;;;;;;5035254;28;20436;-59
2023/09/27 08:39:59;;;;;;;14.80;11.77;;;31.60;99.90;;;;;;5035078;28;20535;-59
2023/09/27 08:42:28;;;;;;;16.37;14.67;;;32.90;97.50;;;;;;5035176;28;20467;-59
2023/09/27 08:44:55;;;;;;;16.37;12.73;;;34.00;91.20;;;;;;5034823;28;20462;-60
2023/09/27 08:47:24;;;;;;;14.33;11.20;;;34.80;84.70;;;;;;5034775;28;20557;-61
2023/09/27 08:49:52;;;;;;;12.97;11.67;;;35.50;77.90;;;;;;5035085;28;20978;-60
2023/09/27 08:52:21;;;;;;;17.53;12.23;;;35.90;71.90;;;;;;5034878;28;20846;-59
2023/09/27 08:54:49;;;;;;;12.40;11.17;;;;;;;;;;5034994;28;20498;-59
2023/09/27 08:57:17;;;;;;;15.83;11.87;;;36.50;64.60;;;;;;5034776;28;20440;-59
2023/09/27 08:59:44;;;;;;;11.90;10.30;;;;;;;;;;5034923;28;20440;-59
2023/09/27 09:02:13;;;;;;;12.17;10.97;;;36.50;61.60;;;;;;5034516;28;20566;-59
2023/09/27 09:04:42;;;;;;;11.50;9.97;;;36.40;61.40;;;;;;5034507;28;20436;-60
2023/09/27 09:07:09;;;;;;;14.80;8.97;;;36.20;62.00;;;;;;5034709;28;20538;-59
2023/09/27 09:09:40;;;;;;;11.30;10.17;;;36.20;77.70;;;;;;5034339;28;20473;-60
2023/09/27 09:12:09;;;;;;;13.50;10.00;;;36.10;59.80;;;;;;5034650;28;20468;-59
2023/09/27 09:14:42;;;;;;;12.30;9.80;;;35.80;60.30;;;;;;5034248;28;20539;-60
2023/09/27 09:17:15;;;;;;;11.43;10.13;;;35.40;60.40;;;;;;5034205;28;20476;-62
2023/09/27 09:19:42;;;;;;;11.77;10.23;;;34.30;62.80;;;;;;5034575;28;20799;-60
2023/09/27 09:22:11;;;;;;;13.03;10.33;;;33.00;66.50;;;;;;5034085;28;20475;-61
2023/09/27 09:24:43;;;;;;;13.27;11.10;;;31.80;70.30;;;;;;5034542;28;20448;-62
2023/09/27 09:27:11;;;;;;;14.23;10.90;;;30.80;75.80;;;;;;5033998;28;20498;-59
2023/09/27 09:29:53;;;;;;;22.73;10.93;;;30.00;81.30;;;;;;5034286;28;20502;-60
2023/09/27 09:32:22;;;;;;;13.70;10.07;;;29.60;86.30;;;;;;5034410;28;20510;-60
2023/09/27 09:34:50;;;;;;;13.77;9.47;;;29.90;88.80;;;;;;5034164;28;20448;-59
2023/09/27 09:37:18;;;;;;;10.97;9.90;;;30.90;87.70;;;;;;5034212;28;20476;-60
2023/09/27 09:39:49;;;;;;;9.63;8.63;;;32.90;77.20;;;;;;5034304;28;20882;-57
2023/09/27 09:42:31;;;;;;;16.53;9.10;;;32.90;77.80;;;;;;5034000;28;21002;-61
2023/09/27 09:45:05;;;;;;;9.00;8.10;;;33.80;73.20;;;;;;5034511;28;20444;-60
2023/09/27 09:47:33;;;;;;;10.63;9.57;;;34.20;68.90;;;;;;5034391;28;20492;-59
2023/09/27 09:50:00;;;;;;;9.67;8.63;;;34.90;67.50;;;;;;5034072;28;20460;-60
2023/09/27 09:52:31;;;;;;;9.77;8.23;;;35.20;65.00;;;;;;5034132;28;20598;-59
2023/09/27 09:55:01;;;;;;;9.10;8.20;;;35.40;64.10;;;;;;5034023;28;20483;-60
2023/09/27 09:57:35;;;;;;;14.23;12.53;;;35.50;61.80;;;;;;5034211;28;20878;-58
2023/09/27 10:00:12;;;;;;;14.90;10.70;;;35.60;62.60;;;;;;5034314;28;20428;-60
2023/09/27 10:02:47;;;;;;;7.10;6.40;;;35.50;63.10;;;;;;5033742;28;20471;-59
2023/09/27 10:05:15;;;;;;;8.07;7.27;;;35.40;60.50;;;;;;5033937;28;20944;-60
2023/09/27 10:07:44;;;;;;;9.87;7.73;;;35.50;78.90;;;;;;5033605;28;20498;-59
2023/09/27 10:10:13;;;;;;;15.57;8.40;;;35.60;60.30;;;;;;5034227;28;20532;-61
2023/09/27 10:12:41;;;;;;;9.20;7.20;;;35.60;60.80;;;;;;5033938;28;20501;-57
2023/09/27 10:15:09;;;;;;;8.57;7.53;;;35.60;59.90;;;;;;5034347;28;20468;-61
2023/09/27 10:17:36;;;;;;;9.97;6.00;;;35.30;60.20;;;;;;5033663;28;20505;-60
2023/09/27 10:20:12;;;;;;;10.87;6.30;;;35.10;59.80;;;;;;5034085;28;20454;-61
2023/09/27 10:22:40;;;;;;;7.90;7.20;;;35.00;59.50;;;;;;5033579;28;20478;-59
2023/09/27 10:25:33;;;;;;;7.10;6.27;;;34.80;60.30;;;;;;5033940;28;20454;-59
2023/09/27 10:28:11;;;;;;;8.20;6.20;;;35.00;59.30;;;;;;5033532;28;20557;-60
2023/09/27 10:31:07;;;;;;;10.63;7.87;;;35.30;58.60;;;;;;5033640;28;20444;-59
2023/09/27 10:33:34;;;;;;;6.83;6.13;;;35.00;61.40;;;;;;5033612;28;20539;-60
2023/09/27 10:36:32;;;;;;;12.43;7.03;;;34.70;60.20;;;;;;5033539;28;20479;-60
2023/09/27 10:39:06;;;;;;;10.43;6.40;;;34.40;62.00;;;;;;5033408;28;20456;-59
2023/09/27 10:41:48;;;;;;;6.73;6.07;;;33.80;82.90;;;;;;5035315;28;20452;-60
2023/09/27 10:44:31;;;;;;;7.47;5.60;;;33.80;62.80;;;;;;5037260;28;20467;-60
2023/09/27 10:46:59;;;;;;;11.17;5.50;;;33.60;63.00;;;;;;5035558;28;20573;-59
2023/09/27 10:49:29;;;;;;;7.70;5.57;;;33.30;63.00;;;;;;5037292;28;20425;-60
2023/09/27 10:51:56;;;;;;;7.90;7.10;;;33.00;65.00;;;;;;5037292;28;20432;-60
2023/09/27 10:54:23;;;;;;;9.07;7.77;;;32.70;66.70;;;;;;5037294;28;20821;-60
2023/09/27 10:56:53;;;;;;;8.80;7.03;;;32.40;70.80;;;;;;5037165;28;20527;-59
2023/09/27 10:59:24;;;;;;;7.90;5.50;;;32.00;91.40;;;;;;5036813;28;20440;-58
2023/09/27 11:01:51;;;;;;;7.13;6.43;;;31.80;67.20;;;;;;5037105;28;20440;-56
2023/09/27 11:04:21;;;;;;;11.37;6.57;;;31.50;70.10;;;;;;5036754;28;20967;-56
2023/09/27 11:06:48;;;;;;;16.93;11.60;;;31.30;71.20;;;;;;5036822;28;20516;-59
2023/09/27 11:09:19;;;;;;;8.50;4.80;;;31.00;73.00;;;;;;5036809;28;20443;-59
2023/09/27 11:11:47;;;;;;;7.00;4.73;;;30.60;72.10;;;;;;5036537;28;20575;-59
2023/09/27 11:14:29;;;;;;;6.80;5.67;;;30.30;72.40;;;;;;5036388;28;20448;-59
2023/09/27 11:16:56;;;;;;;7.97;5.03;;;30.10;74.40;;;;;;5036241;28;20484;-59
2023/09/27 11:19:30;;;;;;;8.33;5.47;;;29.90;74.90;;;;;;5036722;28;20447;-58
2023/09/27 11:21:57;;;;;;;7.07;6.40;;;29.60;75.90;;;;;;5036423;28;20456;-59
2023/09/27 11:24:24;;;;;;;8.53;6.73;;;29.40;78.40;;;;;;5036623;28;20440;-59
2023/09/27 11:26:51;;;;;;;10.57;6.40;;;29.30;81.10;;;;;;5036458;28;20490;-58
2023/09/27 11:29:26;;;;;;;6.80;6.07;;;28.90;97.40;;;;;;5036357;28;21027;-60
2023/09/27 11:31:57;;;;;;;10.53;5.93;;;28.80;80.00;;;;;;5036569;28;20456;-60
2023/09/27 11:34:24;;;;;;;8.13;6.20;;;28.80;99.90;;;;;;5036096;28;20424;-60
2023/09/27 11:36:53;;;;;;;6.50;5.73;;;28.50;82.70;;;;;;5036313;28;20460;-61
2023/09/27 11:39:22;;;;;;;8.20;6.13;;;28.40;84.00;;;;;;5036126;28;20980;-60
2023/09/27 11:41:49;;;;;;;7.83;6.77;;;28.10;97.50;;;;;;5036198;28;20475;-58
2023/09/27 11:44:23;;;;;;;9.47;6.77;;;28.10;85.60;;;;;;5035729;28;20471;-62
2023/09/27 11:46:50;;;;;;;8.10;6.20;;;28.10;86.20;;;;;;5036109;28;20469;-59
2023/09/27 11:49:18;;;;;;;10.13;6.37;;;28.10;86.20;;;;;;5036110;28;20472;-62
2023/09/27 11:51:45;;;;;;;6.50;5.90;;;28.00;86.30;;;;;;5036070;28;20452;-60
2023/09/27 11:54:13;;;;;;;8.10;5.93;;;27.90;86.30;;;;;;5035621;28;20941;-58
2023/09/27 11:56:41;;;;;;;8.50;5.63;;;27.90;86.00;;;;;;5035596;28;20448;-60
2023/09/27 11:59:10;;;;;;;7.20;6.00;;;27.90;86.70;;;;;;5035759;28;20525;-60
2023/09/27 12:01:39;;;;;;;6.13;5.63;;;27.90;88.70;;;;;;5036223;28;20455;-60
2023/09/27 12:04:06;;;;;;;8.90;5.43;;;27.90;99.90;;;;;;5035769;28;20912;-60
2023/09/27 12:06:33;;;;;;;7.53;4.83;;;27.90;90.00;;;;;;5035683;28;20484;-61
2023/09/27 12:09:00;;;;;;;9.10;5.73;;;27.90;89.40;;;;;;5035458;28;20499;-60
2023/09/27 12:11:27;;;;;;;6.10;5.50;;;27.90;90.40;;;;;;5035411;28;20506;-60
2023/09/27 12:13:54;;;;;;;6.37;5.63;;;27.80;90.60;;;;;;5035487;28;20855;-60
2023/09/27 12:16:21;;;;;;;7.00;6.10;;;28.20;99.90;;;;;;5035214;28;20444;-61
2023/09/27 12:18:49;;;;;;;9.17;5.90;;;27.90;91.30;;;;;;5035275;28;20460;-60
2023/09/27 12:21:16;;;;;;;6.13;5.53;;;27.90;91.30;;;;;;5035343;28;20522;-60
2023/09/27 12:23:44;;;;;;;6.97;6.27;;;28.00;91.60;;;;;;5034987;28;20521;-60
2023/09/27 12:26:12;;;;;;;7.27;6.40;;;28.00;99.90;;;;;;5035421;28;20483;-60
2023/09/27 12:28:39;;;;;;;7.23;5.87;;;28.00;91.60;;;;;;5035007;28;20503;-60
2023/09/27 12:31:06;;;;;;;6.87;6.27;;;27.90;99.90;;;;;;5035353;28;20456;-58
2023/09/27 12:33:34;;;;;;;6.90;5.90;;;28.10;99.90;;;;;;5035219;28;20554;-61
2023/09/27 12:36:03;;;;;;;8.50;6.23;;;28.00;93.30;;;;;;5034961;28;20464;-59
2023/09/27 12:38:30;;;;;;;6.70;6.10;;;;;;;;;;5034812;28;21003;-57
2023/09/27 12:41:00;;;;;;;8.20;6.67;;;28.10;93.00;;;;;;5034908;28;20494;-59
2023/09/27 12:43:27;;;;;;;6.27;5.67;;;28.00;99.90;;;;;;5034737;28;20491;-59
2023/09/27 12:45:54;;;;;;;10.57;5.57;;;28.10;92.50;;;;;;5034693;28;20921;-60
2023/09/27 12:48:21;;;;;;;7.20;6.00;;;28.00;92.60;;;;;;5034492;28;20487;-60